createdAt,value
2023-08-13T00:00:18.172Z,100.0
2023-08-13T00:01:16.856Z,100.0
2023-08-13T00:02:18.273Z,100.0
2023-08-13T00:03:17.272Z,100.0
2023-08-13T00:04:17.121Z,100.0
2023-08-13T00:05:16.841Z,100.0
2023-08-13T00:06:17.406Z,100.0
2023-08-13T00:07:17.019Z,100.0
2023-08-13T00:08:16.600Z,100.0
2023-08-13T00:09:17.212Z,100.0
2023-08-13T00:10:16.787Z,100.0
2023-08-13T00:11:17.367Z,100.0
2023-08-13T00:12:17.429Z,100.0
2023-08-13T00:13:17.000Z,100.0
2023-08-13T00:14:16.594Z,100.0
2023-08-13T00:15:17.198Z,100.0
2023-08-13T00:16:16.864Z,100.0
2023-08-13T00:17:17.523Z,100.0
2023-08-13T00:18:17.121Z,100.0
2023-08-13T00:19:16.689Z,100.0
2023-08-13T00:20:17.262Z,100.0
2023-08-13T00:21:16.823Z,100.0
2023-08-13T00:22:17.410Z,100.0
2023-08-13T00:23:16.982Z,100.0
2023-08-13T00:24:16.553Z,100.0
2023-08-13T00:25:17.168Z,100.0
2023-08-13T00:26:16.795Z,100.0
2023-08-13T00:27:17.467Z,100.0
2023-08-13T00:28:17.055Z,100.0
2023-08-13T00:29:16.615Z,100.0
2023-08-13T00:30:17.230Z,100.0
2023-08-13T00:31:16.779Z,100.0
2023-08-13T00:32:17.939Z,100.0
2023-08-13T00:33:16.533Z,100.0
2023-08-13T00:34:17.110Z,100.0
2023-08-13T00:35:16.741Z,100.0
2023-08-13T00:36:17.354Z,100.0
2023-08-13T00:37:16.951Z,100.0
2023-08-13T00:38:17.564Z,100.0
2023-08-13T00:39:17.115Z,100.0
2023-08-13T00:40:16.689Z,100.0
2023-08-13T00:41:17.267Z,100.0
2023-08-13T00:42:17.206Z,100.0
2023-08-13T00:43:16.881Z,100.0
2023-08-13T00:44:17.468Z,100.0
2023-08-13T00:45:17.028Z,100.0
2023-08-13T00:46:16.643Z,100.0
2023-08-13T00:47:17.257Z,100.0
2023-08-13T00:48:16.890Z,100.0
2023-08-13T00:49:17.489Z,100.0
2023-08-13T00:50:17.180Z,100.0
2023-08-13T00:51:16.820Z,100.0
2023-08-13T00:52:17.719Z,100.0
2023-08-13T00:53:17.300Z,100.0
2023-08-13T00:54:16.864Z,100.0
2023-08-13T00:55:17.437Z,100.0
2023-08-13T00:56:17.021Z,100.0
2023-08-13T00:57:16.586Z,100.0
2023-08-13T00:58:17.188Z,100.0
2023-08-13T00:59:16.770Z,100.0
2023-08-13T01:00:17.390Z,100.0
2023-08-13T01:01:17.062Z,100.0
2023-08-13T01:02:16.813Z,100.0
2023-08-13T01:03:17.435Z,100.0
2023-08-13T01:04:17.144Z,100.0
2023-08-13T01:05:16.758Z,100.0
2023-08-13T01:06:17.419Z,100.0
2023-08-13T01:07:16.991Z,100.0
2023-08-13T01:08:16.619Z,100.0
2023-08-13T01:09:17.209Z,100.0
2023-08-13T01:10:16.815Z,100.0
2023-08-13T01:11:17.441Z,100.0
2023-08-13T01:12:17.492Z,100.0
2023-08-13T01:13:17.084Z,100.0
2023-08-13T01:14:16.690Z,100.0
2023-08-13T01:15:17.274Z,100.0
2023-08-13T01:16:17.038Z,100.0
2023-08-13T01:17:16.660Z,100.0
2023-08-13T01:18:17.310Z,100.0
2023-08-13T01:19:16.894Z,100.0
2023-08-13T01:20:17.495Z,100.0
2023-08-13T01:21:17.130Z,100.0
2023-08-13T01:22:16.958Z,100.0
2023-08-13T01:23:17.540Z,100.0
2023-08-13T01:24:17.155Z,100.0
2023-08-13T01:25:16.735Z,100.0
2023-08-13T01:26:17.329Z,100.0
2023-08-13T01:27:16.930Z,100.0
2023-08-13T01:28:17.520Z,100.0
2023-08-13T01:29:17.086Z,100.0
2023-08-13T01:30:16.682Z,100.0
2023-08-13T01:31:17.248Z,100.0
2023-08-13T01:32:17.523Z,100.0
2023-08-13T01:33:17.367Z,100.0
2023-08-13T01:34:17.110Z,100.0
2023-08-13T01:35:16.740Z,100.0
2023-08-13T01:36:17.308Z,100.0
2023-08-13T01:37:16.900Z,100.0
2023-08-13T01:38:17.442Z,100.0
2023-08-13T01:39:16.996Z,100.0
2023-08-13T01:40:16.586Z,100.0
2023-08-13T01:41:17.144Z,100.0
2023-08-13T01:42:17.194Z,100.0
2023-08-13T01:43:16.874Z,100.0
2023-08-13T01:44:17.497Z,100.0
2023-08-13T01:45:17.084Z,100.0
2023-08-13T01:46:16.660Z,100.0
2023-08-13T01:47:17.232Z,100.0
2023-08-13T01:48:17.038Z,100.0
2023-08-13T01:49:16.735Z,100.0
2023-08-13T01:50:17.338Z,100.0
2023-08-13T01:51:16.926Z,100.0
2023-08-13T01:52:17.594Z,100.0
2023-08-13T01:53:17.210Z,100.0
2023-08-13T01:54:16.793Z,100.0
2023-08-13T01:55:17.413Z,100.0
2023-08-13T01:56:17.034Z,100.0
2023-08-13T01:57:16.636Z,100.0
2023-08-13T01:58:17.216Z,100.0
2023-08-13T01:59:16.843Z,100.0
2023-08-13T02:00:17.435Z,100.0
2023-08-13T02:01:17.124Z,100.0
2023-08-13T02:02:17.402Z,100.0
2023-08-13T02:03:17.014Z,100.0
2023-08-13T02:04:16.859Z,100.0
2023-08-13T02:05:16.836Z,100.0
2023-08-13T02:06:17.403Z,100.0
2023-08-13T02:07:16.996Z,100.0
2023-08-13T02:08:16.590Z,100.0
2023-08-13T02:09:17.216Z,100.0
2023-08-13T02:10:16.835Z,100.0
2023-08-13T02:11:17.413Z,100.0
2023-08-13T02:12:17.093Z,100.0
2023-08-13T02:13:16.659Z,100.0
2023-08-13T02:14:17.277Z,100.0
2023-08-13T02:15:16.873Z,100.0
2023-08-13T02:16:17.500Z,100.0
2023-08-13T02:17:17.083Z,100.0
2023-08-13T02:18:16.647Z,100.0
2023-08-13T02:19:17.232Z,100.0
2023-08-13T02:20:16.900Z,100.0
2023-08-13T02:21:17.458Z,100.0
2023-08-13T02:22:17.572Z,100.0
2023-08-13T02:23:17.190Z,100.0
2023-08-13T02:24:16.825Z,100.0
2023-08-13T02:25:17.398Z,100.0
2023-08-13T02:26:17.030Z,100.0
2023-08-13T02:27:16.614Z,100.0
2023-08-13T02:28:17.185Z,100.0
2023-08-13T02:29:16.790Z,100.0
2023-08-13T02:30:17.364Z,100.0
2023-08-13T02:31:17.167Z,100.0
2023-08-13T02:32:17.180Z,100.0
2023-08-13T02:33:16.885Z,100.0
2023-08-13T02:34:17.494Z,100.0
2023-08-13T02:35:17.070Z,100.0
2023-08-13T02:36:16.684Z,100.0
2023-08-13T02:37:17.378Z,100.0
2023-08-13T02:38:17.090Z,100.0
2023-08-13T02:39:16.640Z,100.0
2023-08-13T02:40:17.194Z,100.0
2023-08-13T02:41:16.782Z,100.0
2023-08-13T02:42:17.640Z,100.0
2023-08-13T02:43:17.219Z,100.0
2023-08-13T02:44:16.793Z,100.0
2023-08-13T02:45:17.426Z,100.0
2023-08-13T02:46:17.091Z,100.0
2023-08-13T02:47:16.702Z,100.0
2023-08-13T02:48:17.585Z,100.0
2023-08-13T02:49:17.257Z,100.0
2023-08-13T02:50:16.820Z,100.0
2023-08-13T02:51:17.395Z,100.0
2023-08-13T02:52:17.708Z,100.0
2023-08-13T02:53:17.087Z,100.0
2023-08-13T02:54:16.693Z,100.0
2023-08-13T02:55:17.291Z,100.0
2023-08-13T02:56:16.859Z,100.0
2023-08-13T02:57:17.499Z,100.0
2023-08-13T02:58:17.068Z,100.0
2023-08-13T02:59:16.669Z,100.0
2023-08-13T03:00:17.283Z,100.0
2023-08-13T03:01:16.888Z,100.0
2023-08-13T03:02:17.456Z,100.0
2023-08-13T03:03:17.191Z,100.0
2023-08-13T03:04:16.881Z,100.0
2023-08-13T03:05:17.524Z,100.0
2023-08-13T03:06:17.122Z,100.0
2023-08-13T03:07:16.730Z,100.0
2023-08-13T03:08:17.351Z,100.0
2023-08-13T03:09:16.954Z,100.0
2023-08-13T03:10:17.504Z,100.0
2023-08-13T03:11:17.075Z,100.0
2023-08-13T03:12:16.764Z,100.0
2023-08-13T03:13:17.326Z,100.0
2023-08-13T03:14:16.944Z,100.0
2023-08-13T03:15:17.541Z,100.0
2023-08-13T03:16:17.415Z,100.0
2023-08-13T03:17:17.104Z,100.0
2023-08-13T03:18:16.690Z,100.0
2023-08-13T03:19:17.244Z,100.0
2023-08-13T03:20:16.831Z,100.0
2023-08-13T03:21:17.413Z,100.0
2023-08-13T03:22:17.032Z,100.0
2023-08-13T03:23:16.597Z,100.0
2023-08-13T03:24:17.180Z,100.0
2023-08-13T03:25:16.795Z,100.0
2023-08-13T03:26:17.365Z,100.0
2023-08-13T03:27:16.959Z,100.0
2023-08-13T03:28:17.525Z,100.0
2023-08-13T03:29:17.121Z,100.0
2023-08-13T03:30:16.736Z,100.0
2023-08-13T03:31:17.385Z,100.0
2023-08-13T03:32:17.552Z,100.0
2023-08-13T03:33:17.153Z,100.0
2023-08-13T03:34:16.731Z,100.0
2023-08-13T03:35:17.356Z,100.0
2023-08-13T03:36:16.923Z,100.0
2023-08-13T03:37:17.526Z,100.0
2023-08-13T03:38:17.149Z,100.0
2023-08-13T03:39:16.715Z,100.0
2023-08-13T03:40:17.288Z,100.0
2023-08-13T03:41:16.843Z,100.0
2023-08-13T03:42:17.407Z,100.0
2023-08-13T03:43:16.976Z,100.0
2023-08-13T03:44:16.541Z,100.0
2023-08-13T03:45:17.116Z,100.0
2023-08-13T03:46:16.759Z,100.0
2023-08-13T03:47:17.385Z,100.0
2023-08-13T03:48:16.975Z,100.0
2023-08-13T03:49:16.577Z,100.0
2023-08-13T03:50:17.177Z,100.0
2023-08-13T03:51:16.762Z,100.0
2023-08-13T03:52:17.681Z,100.0
2023-08-13T03:53:17.233Z,100.0
2023-08-13T03:54:16.808Z,100.0
2023-08-13T03:55:17.368Z,100.0
2023-08-13T03:56:16.959Z,100.0
2023-08-13T03:57:17.533Z,100.0
2023-08-13T03:58:17.123Z,100.0
2023-08-13T03:59:16.673Z,100.0
2023-08-13T04:00:17.237Z,100.0
2023-08-13T04:01:17.028Z,100.0
2023-08-13T04:02:17.387Z,100.0
2023-08-13T04:03:26.980Z,100.0
2023-08-13T04:04:16.785Z,100.0
2023-08-13T04:05:17.382Z,100.0
2023-08-13T04:06:16.992Z,100.0
2023-08-13T04:07:16.572Z,100.0
2023-08-13T04:08:17.135Z,100.0
2023-08-13T04:09:16.733Z,100.0
2023-08-13T04:10:17.289Z,100.0
2023-08-13T04:11:16.895Z,100.0
2023-08-13T04:12:17.492Z,100.0
2023-08-13T04:13:17.069Z,100.0
2023-08-13T04:14:16.648Z,100.0
2023-08-13T04:15:17.279Z,100.0
2023-08-13T04:16:16.912Z,100.0
2023-08-13T04:17:17.540Z,100.0
2023-08-13T04:18:17.125Z,100.0
2023-08-13T04:19:16.688Z,100.0
2023-08-13T04:20:17.260Z,100.0
2023-08-13T04:21:16.814Z,100.0
2023-08-13T04:22:17.429Z,100.0
2023-08-13T04:23:17.138Z,100.0
2023-08-13T04:24:16.712Z,100.0
2023-08-13T04:25:17.304Z,100.0
2023-08-13T04:26:16.908Z,100.0
2023-08-13T04:27:17.533Z,100.0
2023-08-13T04:28:17.110Z,100.0
2023-08-13T04:29:16.709Z,100.0
2023-08-13T04:30:17.292Z,100.0
2023-08-13T04:31:16.895Z,100.0
2023-08-13T04:32:17.561Z,100.0
2023-08-13T04:33:18.682Z,100.0
2023-08-13T04:34:17.303Z,100.0
2023-08-13T04:35:16.881Z,100.0
2023-08-13T04:36:17.507Z,100.0
2023-08-13T04:37:17.092Z,100.0
2023-08-13T04:38:16.655Z,100.0
2023-08-13T04:39:17.240Z,100.0
2023-08-13T04:40:16.802Z,100.0
2023-08-13T04:41:17.373Z,100.0
2023-08-13T04:42:17.516Z,100.0
2023-08-13T04:43:17.262Z,100.0
2023-08-13T04:44:16.862Z,100.0
2023-08-13T04:45:17.531Z,100.0
2023-08-13T04:46:17.099Z,100.0
2023-08-13T04:47:16.669Z,100.0
2023-08-13T04:48:17.201Z,100.0
2023-08-13T04:49:16.784Z,100.0
2023-08-13T04:50:17.356Z,100.0
2023-08-13T04:51:17.013Z,100.0
2023-08-13T04:52:17.258Z,100.0
2023-08-13T04:53:17.028Z,100.0
2023-08-13T04:54:16.603Z,100.0
2023-08-13T04:55:17.161Z,100.0
2023-08-13T04:56:16.736Z,100.0
2023-08-13T04:57:17.305Z,100.0
2023-08-13T04:58:16.865Z,100.0
2023-08-13T04:59:17.447Z,100.0
2023-08-13T05:00:17.041Z,100.0
2023-08-13T05:01:16.662Z,100.0
2023-08-13T05:02:17.269Z,100.0
2023-08-13T05:03:16.826Z,100.0
2023-08-13T05:04:17.535Z,100.0
2023-08-13T05:05:17.192Z,100.0
2023-08-13T05:06:16.803Z,100.0
2023-08-13T05:07:17.357Z,100.0
2023-08-13T05:08:16.958Z,100.0
2023-08-13T05:09:17.515Z,100.0
2023-08-13T05:10:17.097Z,100.0
2023-08-13T05:11:16.675Z,100.0
2023-08-13T05:12:17.905Z,100.0
2023-08-13T05:13:16.732Z,100.0
2023-08-13T05:14:17.330Z,100.0
2023-08-13T05:15:16.911Z,100.0
2023-08-13T05:16:17.567Z,100.0
2023-08-13T05:17:17.215Z,100.0
2023-08-13T05:18:16.788Z,100.0
2023-08-13T05:19:17.404Z,100.0
2023-08-13T05:20:16.997Z,100.0
2023-08-13T05:21:16.593Z,100.0
2023-08-13T05:22:17.251Z,100.0
2023-08-13T05:23:16.854Z,100.0
2023-08-13T05:24:17.431Z,100.0
2023-08-13T05:25:17.021Z,100.0
2023-08-13T05:26:16.630Z,100.0
2023-08-13T05:27:17.264Z,100.0
2023-08-13T05:28:16.878Z,100.0
2023-08-13T05:29:17.474Z,100.0
2023-08-13T05:30:17.072Z,100.0
2023-08-13T05:31:16.731Z,100.0
2023-08-13T05:32:17.599Z,100.0
2023-08-13T05:33:17.185Z,100.0
2023-08-13T05:34:16.820Z,100.0
2023-08-13T05:35:17.407Z,100.0
2023-08-13T05:36:16.976Z,100.0
2023-08-13T05:37:16.590Z,100.0
2023-08-13T05:38:17.162Z,100.0
2023-08-13T05:39:16.713Z,100.0
2023-08-13T05:40:17.285Z,100.0
2023-08-13T05:41:16.848Z,100.0
2023-08-13T05:42:17.439Z,100.0
2023-08-13T05:43:17.059Z,100.0
2023-08-13T05:44:16.662Z,100.0
2023-08-13T05:45:17.284Z,100.0
2023-08-13T05:46:16.930Z,100.0
2023-08-13T05:47:17.552Z,100.0
2023-08-13T05:48:17.120Z,100.0
2023-08-13T05:49:16.678Z,100.0
2023-08-13T05:50:17.243Z,100.0
2023-08-13T05:51:16.877Z,100.0
2023-08-13T05:52:17.440Z,100.0
2023-08-13T05:53:16.993Z,100.0
2023-08-13T05:54:16.569Z,100.0
2023-08-13T05:55:17.181Z,100.0
2023-08-13T05:56:16.774Z,100.0
2023-08-13T05:57:17.381Z,100.0
2023-08-13T05:58:16.946Z,100.0
2023-08-13T05:59:17.515Z,100.0
2023-08-13T06:00:17.127Z,100.0
2023-08-13T06:01:16.809Z,99.8
2023-08-13T06:02:17.955Z,99.9
2023-08-13T06:03:16.845Z,99.8
2023-08-13T06:04:17.547Z,99.8
2023-08-13T06:05:17.120Z,99.7
2023-08-13T06:06:16.714Z,99.8
2023-08-13T06:07:17.338Z,99.8
2023-08-13T06:08:16.906Z,99.8
2023-08-13T06:09:17.502Z,99.5
2023-08-13T06:10:17.143Z,99.2
2023-08-13T06:11:16.717Z,99.2
2023-08-13T06:12:17.525Z,99.3
2023-08-13T06:13:17.124Z,99.5
2023-08-13T06:14:16.729Z,99.1
2023-08-13T06:15:17.319Z,99.1
2023-08-13T06:16:17.005Z,98.8
2023-08-13T06:17:16.663Z,98.8
2023-08-13T06:18:17.300Z,98.8
2023-08-13T06:19:16.898Z,98.6
2023-08-13T06:20:17.516Z,98.2
2023-08-13T06:21:17.095Z,98.2
2023-08-13T06:22:17.368Z,98.0
2023-08-13T06:23:17.248Z,97.9
2023-08-13T06:24:16.850Z,98.4
2023-08-13T06:25:17.416Z,98.7
2023-08-13T06:26:16.984Z,98.3
2023-08-13T06:27:16.588Z,98.6
2023-08-13T06:28:17.159Z,98.8
2023-08-13T06:29:16.726Z,99.0
2023-08-13T06:30:17.319Z,98.7
2023-08-13T06:31:40.556Z,98.0
2023-08-13T06:32:17.437Z,96.9
2023-08-13T06:33:17.029Z,96.5
2023-08-13T06:34:16.596Z,96.1
2023-08-13T06:35:17.189Z,96.2
2023-08-13T06:36:16.773Z,96.0
2023-08-13T06:37:17.350Z,95.4
2023-08-13T06:38:16.902Z,95.9
2023-08-13T06:39:17.503Z,96.9
2023-08-13T06:40:17.099Z,96.5
2023-08-13T06:41:16.664Z,96.6
2023-08-13T06:42:17.548Z,96.1
2023-08-13T06:43:17.111Z,96.8
2023-08-13T06:44:16.747Z,96.3
2023-08-13T06:45:17.359Z,94.1
2023-08-13T06:46:16.793Z,94.7
2023-08-13T06:47:17.417Z,94.8
2023-08-13T06:48:16.993Z,94.4
2023-08-13T06:49:16.638Z,94.9
2023-08-13T06:50:17.234Z,94.2
2023-08-13T06:51:16.828Z,95.2
2023-08-13T06:52:17.395Z,94.2
2023-08-13T06:53:16.974Z,94.7
2023-08-13T06:54:16.539Z,94.7
2023-08-13T06:55:17.135Z,94.3
2023-08-13T06:56:16.716Z,94.7
2023-08-13T06:57:17.278Z,95.1
2023-08-13T06:58:16.838Z,94.9
2023-08-13T06:59:17.430Z,94.0
2023-08-13T07:00:17.355Z,94.0
2023-08-13T07:01:17.061Z,95.0
2023-08-13T07:02:17.130Z,92.7
2023-08-13T07:03:16.818Z,93.5
2023-08-13T07:04:17.407Z,94.2
2023-08-13T07:05:17.137Z,92.6
2023-08-13T07:06:17.181Z,89.9
2023-08-13T07:07:16.738Z,88.4
2023-08-13T07:08:17.298Z,90.3
2023-08-13T07:09:16.928Z,89.8
2023-08-13T07:10:17.509Z,90.2
2023-08-13T07:11:17.137Z,88.6
2023-08-13T07:12:17.323Z,89.9
2023-08-13T07:13:17.047Z,89.9
2023-08-13T07:14:16.628Z,90.2
2023-08-13T07:15:17.228Z,89.2
2023-08-13T07:16:16.847Z,88.1
2023-08-13T07:17:17.559Z,87.5
2023-08-13T07:18:17.179Z,87.5
2023-08-13T07:19:16.779Z,82.7
2023-08-13T07:20:17.415Z,84.7
2023-08-13T07:21:17.005Z,84.5
2023-08-13T07:22:17.088Z,83.7
2023-08-13T07:23:16.847Z,83.5
2023-08-13T07:24:17.416Z,83.6
2023-08-13T07:25:17.040Z,83.6
2023-08-13T07:26:16.656Z,84.0
2023-08-13T07:27:17.293Z,84.2
2023-08-13T07:28:16.857Z,84.6
2023-08-13T07:29:17.451Z,84.6
2023-08-13T07:30:17.046Z,85.7
2023-08-13T07:31:16.715Z,85.4
2023-08-13T07:32:17.966Z,83.0
2023-08-13T07:33:16.706Z,83.2
2023-08-13T07:34:17.383Z,82.3
2023-08-13T07:35:16.977Z,82.8
2023-08-13T07:36:16.836Z,82.9
2023-08-13T07:37:17.510Z,83.1
2023-08-13T07:38:17.079Z,83.3
2023-08-13T07:39:16.646Z,83.6
2023-08-13T07:40:17.275Z,83.0
2023-08-13T07:41:16.843Z,82.6
2023-08-13T07:42:17.681Z,83.2
2023-08-13T07:43:17.315Z,83.4
2023-08-13T07:44:16.879Z,83.6
2023-08-13T07:45:17.523Z,83.1
2023-08-13T07:46:17.178Z,83.8
2023-08-13T07:47:16.801Z,84.0
2023-08-13T07:48:17.365Z,82.2
2023-08-13T07:49:16.978Z,80.6
2023-08-13T07:50:16.555Z,80.2
2023-08-13T07:51:17.190Z,82.4
2023-08-13T07:52:17.625Z,81.9
2023-08-13T07:53:17.329Z,79.7
2023-08-13T07:54:19.864Z,81.9
2023-08-13T07:55:17.484Z,81.6
2023-08-13T07:56:17.067Z,82.1
2023-08-13T07:57:16.631Z,82.8
2023-08-13T07:58:17.174Z,82.4
2023-08-13T07:59:16.783Z,82.3
2023-08-13T08:00:17.409Z,82.8
2023-08-13T08:01:17.081Z,83.9
2023-08-13T08:02:17.414Z,84.1
2023-08-13T08:03:17.153Z,84.8
2023-08-13T08:04:16.758Z,85.0
2023-08-13T08:05:17.383Z,85.6
2023-08-13T08:06:16.972Z,85.9
2023-08-13T08:07:16.547Z,84.4
2023-08-13T08:08:17.169Z,84.6
2023-08-13T08:09:16.773Z,84.8
2023-08-13T08:10:17.359Z,83.6
2023-08-13T08:11:16.981Z,84.4
2023-08-13T08:12:17.370Z,84.4
2023-08-13T08:13:17.110Z,84.6
2023-08-13T08:14:16.728Z,83.3
2023-08-13T08:15:17.351Z,82.3
2023-08-13T08:16:17.011Z,81.5
2023-08-13T08:17:16.668Z,80.5
2023-08-13T08:18:17.243Z,81.3
2023-08-13T08:19:16.847Z,81.2
2023-08-13T08:20:17.438Z,81.1
2023-08-13T08:21:17.011Z,81.2
2023-08-13T08:22:17.235Z,81.9
2023-08-13T08:23:17.106Z,82.9
2023-08-13T08:24:16.693Z,83.3
2023-08-13T08:25:17.301Z,83.6
2023-08-13T08:26:16.865Z,83.6
2023-08-13T08:27:17.484Z,82.8
2023-08-13T08:28:17.053Z,81.6
2023-08-13T08:29:16.639Z,82.5
2023-08-13T08:30:17.222Z,81.8
2023-08-13T08:31:16.823Z,79.7
2023-08-13T08:32:18.001Z,79.8
2023-08-13T08:33:16.790Z,80.1
2023-08-13T08:34:17.352Z,80.7
2023-08-13T08:35:16.899Z,79.1
2023-08-13T08:36:17.452Z,77.4
2023-08-13T08:37:17.059Z,77.0
2023-08-13T08:38:16.692Z,78.4
2023-08-13T08:39:17.271Z,79.1
2023-08-13T08:40:16.832Z,79.7
2023-08-13T08:41:17.467Z,81.1
2023-08-13T08:42:17.727Z,81.6
2023-08-13T08:43:17.445Z,81.9
2023-08-13T08:44:16.994Z,82.1
2023-08-13T08:45:16.548Z,81.7
2023-08-13T08:46:17.275Z,82.0
2023-08-13T08:47:16.937Z,83.5
2023-08-13T08:48:17.485Z,83.5
2023-08-13T08:49:17.031Z,84.3
2023-08-13T08:50:16.613Z,83.9
2023-08-13T08:51:17.183Z,83.8
2023-08-13T08:52:17.670Z,84.4
2023-08-13T08:53:17.396Z,83.1
2023-08-13T08:54:16.967Z,83.7
2023-08-13T08:55:16.534Z,83.2
2023-08-13T08:56:17.237Z,83.5
2023-08-13T08:57:16.955Z,84.1
2023-08-13T08:58:17.529Z,84.9
2023-08-13T08:59:17.100Z,85.2
2023-08-13T09:00:16.658Z,85.3
2023-08-13T09:01:17.403Z,85.1
2023-08-13T09:02:17.931Z,85.1
2023-08-13T09:03:16.703Z,85.0
2023-08-13T09:04:17.371Z,84.9
2023-08-13T09:05:16.948Z,85.2
2023-08-13T09:06:23.139Z,85.4
2023-08-13T09:07:16.744Z,85.2
2023-08-13T09:08:17.672Z,84.9
2023-08-13T09:09:17.308Z,85.0
2023-08-13T09:10:16.887Z,85.3
2023-08-13T09:11:17.455Z,84.9
2023-08-13T09:12:17.679Z,83.9
2023-08-13T09:13:17.401Z,83.7
2023-08-13T09:14:17.013Z,83.4
2023-08-13T09:15:16.599Z,83.2
2023-08-13T09:16:17.313Z,82.1
2023-08-13T09:17:17.504Z,83.0
2023-08-13T09:18:17.318Z,82.5
2023-08-13T09:19:16.903Z,82.4
2023-08-13T09:20:17.504Z,82.2
2023-08-13T09:21:17.125Z,82.6
2023-08-13T09:22:17.315Z,82.9
2023-08-13T09:23:17.100Z,83.2
2023-08-13T09:24:17.663Z,83.0
2023-08-13T09:25:17.251Z,84.0
2023-08-13T09:26:16.850Z,83.1
2023-08-13T09:27:17.938Z,83.7
2023-08-13T09:28:16.599Z,83.9
2023-08-13T09:29:17.279Z,82.5
2023-08-13T09:30:16.852Z,83.2
2023-08-13T09:31:17.464Z,83.3
2023-08-13T09:32:17.032Z,84.0
2023-08-13T09:33:16.595Z,83.8
2023-08-13T09:34:17.154Z,83.6
2023-08-13T09:35:16.726Z,83.7
2023-08-13T09:36:17.955Z,83.5
2023-08-13T09:37:18.200Z,83.6
2023-08-13T09:38:17.043Z,83.1
2023-08-13T09:39:16.617Z,83.7
2023-08-13T09:40:17.187Z,83.4
2023-08-13T09:41:16.752Z,83.2
2023-08-13T09:42:17.683Z,83.5
2023-08-13T09:43:17.265Z,84.0
2023-08-13T09:44:16.892Z,84.3
2023-08-13T09:45:17.503Z,84.2
2023-08-13T09:46:17.123Z,84.2
2023-08-13T09:47:17.185Z,84.3
2023-08-13T09:48:17.034Z,84.5
2023-08-13T09:49:16.654Z,84.4
2023-08-13T09:50:17.230Z,84.9
2023-08-13T09:51:33.426Z,85.8
2023-08-13T09:52:17.127Z,86.1
2023-08-13T09:53:16.943Z,86.1
2023-08-13T09:54:17.504Z,86.1
2023-08-13T09:55:17.146Z,85.9
2023-08-13T09:56:16.866Z,85.4
2023-08-13T09:57:17.484Z,85.3
2023-08-13T09:58:17.045Z,85.8
2023-08-13T09:59:16.601Z,85.4
2023-08-13T10:00:17.334Z,84.4
2023-08-13T10:01:17.003Z,84.6
2023-08-13T10:02:17.594Z,84.5
2023-08-13T10:03:18.677Z,84.4
2023-08-13T10:04:17.341Z,84.2
2023-08-13T10:05:16.947Z,84.1
2023-08-13T10:06:17.519Z,83.9
2023-08-13T10:07:17.142Z,83.6
2023-08-13T10:08:16.866Z,84.0
2023-08-13T10:09:17.424Z,83.7
2023-08-13T10:10:17.029Z,83.5
2023-08-13T10:11:16.610Z,83.5
2023-08-13T10:12:17.556Z,84.0
2023-08-13T10:13:17.204Z,83.1
2023-08-13T10:14:16.862Z,82.8
2023-08-13T10:15:17.445Z,83.0
2023-08-13T10:16:17.107Z,81.8
2023-08-13T10:17:16.702Z,81.4
2023-08-13T10:18:17.259Z,81.5
2023-08-13T10:19:17.636Z,81.4
2023-08-13T10:20:17.231Z,80.5
2023-08-13T10:21:16.771Z,81.0
2023-08-13T10:22:17.475Z,82.5
2023-08-13T10:23:17.056Z,83.5
2023-08-13T10:24:16.656Z,82.8
2023-08-13T10:25:17.224Z,82.3
2023-08-13T10:26:16.783Z,82.5
2023-08-13T10:27:17.342Z,82.7
2023-08-13T10:28:16.875Z,82.8
2023-08-13T10:29:17.461Z,81.9
2023-08-13T10:30:17.069Z,82.0
2023-08-13T10:31:16.807Z,81.2
2023-08-13T10:32:18.166Z,81.6
2023-08-13T10:33:17.021Z,82.1
2023-08-13T10:34:16.575Z,81.8
2023-08-13T10:35:17.169Z,82.2
2023-08-13T10:36:16.764Z,82.6
2023-08-13T10:37:17.353Z,82.0
2023-08-13T10:38:16.890Z,81.6
2023-08-13T10:39:17.480Z,81.5
2023-08-13T10:40:17.063Z,81.1
2023-08-13T10:41:16.639Z,81.7
2023-08-13T10:42:17.860Z,82.3
2023-08-13T10:43:17.499Z,82.5
2023-08-13T10:44:17.069Z,82.4
2023-08-13T10:45:16.680Z,83.3
2023-08-13T10:46:17.381Z,83.1
2023-08-13T10:47:17.007Z,83.0
2023-08-13T10:48:16.608Z,81.9
2023-08-13T10:49:18.675Z,80.7
2023-08-13T10:50:17.261Z,81.2
2023-08-13T10:51:16.836Z,80.2
2023-08-13T10:52:17.919Z,80.6
2023-08-13T10:53:16.542Z,80.8
2023-08-13T10:54:17.113Z,80.6
2023-08-13T10:55:18.425Z,80.6
2023-08-13T10:56:16.992Z,81.4
2023-08-13T10:57:16.545Z,81.7
2023-08-13T10:58:17.120Z,81.4
2023-08-13T10:59:16.670Z,81.6
2023-08-13T11:00:17.267Z,82.6
2023-08-13T11:01:16.866Z,82.0
2023-08-13T11:02:22.958Z,81.4
2023-08-13T11:03:17.257Z,81.5
2023-08-13T11:04:16.864Z,81.8
2023-08-13T11:05:17.501Z,81.6
2023-08-13T11:06:17.076Z,81.8
2023-08-13T11:07:16.647Z,81.1
2023-08-13T11:08:17.209Z,80.9
2023-08-13T11:09:16.794Z,81.1
2023-08-13T11:10:17.425Z,81.2
2023-08-13T11:11:16.997Z,81.4
2023-08-13T11:12:17.321Z,81.4
2023-08-13T11:13:17.074Z,81.6
2023-08-13T11:14:16.689Z,81.1
2023-08-13T11:15:17.277Z,80.4
2023-08-13T11:16:17.205Z,80.9
2023-08-13T11:17:16.863Z,80.9
2023-08-13T11:18:17.459Z,81.5
2023-08-13T11:19:17.031Z,81.0
2023-08-13T11:20:16.596Z,80.8
2023-08-13T11:21:17.191Z,81.2
2023-08-13T11:22:17.253Z,82.1
2023-08-13T11:23:16.916Z,81.3
2023-08-13T11:24:17.493Z,81.2
2023-08-13T11:25:17.097Z,81.1
2023-08-13T11:26:16.678Z,80.7
2023-08-13T11:27:17.278Z,80.9
2023-08-13T11:28:16.840Z,81.6
2023-08-13T11:29:17.473Z,80.7
2023-08-13T11:30:17.074Z,81.1
2023-08-13T11:31:16.658Z,82.5
2023-08-13T11:32:17.768Z,82.9
2023-08-13T11:33:17.693Z,82.5
2023-08-13T11:34:17.346Z,82.6
2023-08-13T11:35:16.922Z,82.2
2023-08-13T11:36:17.470Z,82.0
2023-08-13T11:37:17.039Z,81.3
2023-08-13T11:38:20.170Z,81.7
2023-08-13T11:39:16.802Z,81.2
2023-08-13T11:40:17.383Z,80.9
2023-08-13T11:41:16.973Z,81.9
2023-08-13T11:42:17.003Z,81.2
2023-08-13T11:43:16.787Z,80.5
2023-08-13T11:44:17.402Z,80.9
2023-08-13T11:45:17.008Z,81.0
2023-08-13T11:46:16.598Z,80.0
2023-08-13T11:47:17.192Z,79.4
2023-08-13T11:48:16.936Z,78.4
2023-08-13T11:49:16.585Z,78.8
2023-08-13T11:50:17.160Z,78.4
2023-08-13T11:51:21.508Z,77.8
2023-08-13T11:52:17.557Z,78.2
2023-08-13T11:53:17.177Z,78.6
2023-08-13T11:54:16.750Z,79.1
2023-08-13T11:55:17.388Z,79.3
2023-08-13T11:56:17.000Z,78.8
2023-08-13T11:57:16.582Z,78.2
2023-08-13T11:58:17.183Z,78.7
2023-08-13T11:59:16.747Z,79.8
2023-08-13T12:00:17.343Z,78.7
2023-08-13T12:01:17.084Z,78.8
2023-08-13T12:02:17.337Z,79.5
2023-08-13T12:03:17.302Z,79.0
2023-08-13T12:04:17.074Z,78.9
2023-08-13T12:05:16.882Z,78.9
2023-08-13T12:06:17.519Z,79.3
2023-08-13T12:07:17.124Z,79.8
2023-08-13T12:08:16.703Z,79.9
2023-08-13T12:09:17.277Z,79.5
2023-08-13T12:10:16.864Z,79.4
2023-08-13T12:11:17.797Z,78.9
2023-08-13T12:12:17.859Z,78.2
2023-08-13T12:13:16.542Z,78.6
2023-08-13T12:14:17.124Z,78.4
2023-08-13T12:15:16.716Z,78.7
2023-08-13T12:16:17.368Z,78.5
2023-08-13T12:17:16.936Z,78.5
2023-08-13T12:18:17.487Z,78.5
2023-08-13T12:19:17.093Z,79.5
2023-08-13T12:20:16.671Z,79.9
2023-08-13T12:21:17.270Z,80.0
2023-08-13T12:22:17.557Z,80.1
2023-08-13T12:23:17.277Z,80.2
2023-08-13T12:24:16.888Z,79.5
2023-08-13T12:25:17.479Z,79.2
2023-08-13T12:26:17.058Z,78.7
2023-08-13T12:27:16.693Z,79.4
2023-08-13T12:28:17.260Z,79.4
2023-08-13T12:29:17.050Z,79.3
2023-08-13T12:30:16.697Z,79.4
2023-08-13T12:31:17.380Z,78.8
2023-08-13T12:32:17.533Z,79.2
2023-08-13T12:33:17.262Z,79.1
2023-08-13T12:34:16.869Z,79.0
2023-08-13T12:35:17.468Z,78.7
2023-08-13T12:36:17.048Z,79.6
2023-08-13T12:37:16.610Z,79.9
2023-08-13T12:38:17.195Z,79.5
2023-08-13T12:39:16.770Z,79.2
2023-08-13T12:40:17.390Z,79.6
2023-08-13T12:41:34.771Z,79.4
2023-08-13T12:42:17.214Z,79.4
2023-08-13T12:43:16.986Z,78.9
2023-08-13T12:44:16.560Z,78.5
2023-08-13T12:45:17.114Z,78.9
2023-08-13T12:46:16.690Z,78.2
2023-08-13T12:47:17.293Z,78.9
2023-08-13T12:48:16.886Z,79.1
2023-08-13T12:49:17.463Z,79.4
2023-08-13T12:50:17.052Z,79.5
2023-08-13T12:51:16.608Z,79.5
2023-08-13T12:52:17.223Z,78.9
2023-08-13T12:53:16.802Z,79.3
2023-08-13T12:54:17.385Z,80.0
2023-08-13T12:55:16.937Z,80.6
2023-08-13T12:56:17.496Z,80.5
2023-08-13T12:57:17.132Z,81.2
2023-08-13T12:58:16.746Z,80.9
2023-08-13T12:59:17.297Z,80.9
2023-08-13T13:00:16.901Z,80.6
2023-08-13T13:01:17.522Z,80.3
2023-08-13T13:02:17.678Z,80.3
2023-08-13T13:03:17.453Z,79.4
2023-08-13T13:04:17.021Z,80.0
2023-08-13T13:05:16.677Z,79.0
2023-08-13T13:06:17.286Z,78.9